Time;durP1;ratioP1;P1;durP2;ratioP2;P2;SDS_P1;SDS_P2;PMS_P1;PMS_P2;Temp;Humidity;BMP_temperature;BMP_pressure;BME280_temperature;BME280_humidity;BME280_pressure;Samples;Min_cycle;Max_cycle;Signal;HPM_P1;HPM_P2
2022/05/12 00:02:13;;;;;;;9.90;7.70;;;;;;;16.09;94.90;99831.38;5028922;28;20289;-53
2022/05/12 00:04:41;;;;;;;7.30;6.70;;;;;;;16.07;93.64;99827.97;5028870;28;20611;-53
2022/05/12 00:07:08;;;;;;;8.03;7.17;;;;;;;16.05;93.81;99827.19;5028741;28;20203;-53
2022/05/12 00:09:36;;;;;;;7.33;6.47;;;;;;;16.01;93.27;99818.66;5028713;28;20313;-56
2022/05/12 00:12:04;;;;;;;7.03;6.40;;;;;;;16.01;93.44;99826.50;5028773;28;20233;-54
2022/05/12 00:14:31;;;;;;;6.97;6.27;;;;;;;15.94;94.34;99827.69;5028734;28;20197;-55
2022/05/12 00:16:58;;;;;;;11.00;6.63;;;;;;;15.85;95.08;99815.88;5045932;28;20203;-56
2022/05/12 00:19:26;;;;;;;7.60;6.93;;;;;;;15.85;94.70;99821.09;5048442;28;20203;-55
2022/05/12 00:21:54;;;;;;;7.77;6.73;;;;;;;15.91;94.49;99822.59;5048425;28;20309;-54
2022/05/12 00:24:22;;;;;;;6.97;6.33;;;;;;;15.93;94.29;99832.06;5048756;28;20207;-55
2022/05/12 00:26:49;;;;;;;8.03;7.43;;;;;;;15.84;95.74;99824.63;5047218;28;20235;-55
2022/05/12 00:29:16;;;;;;;7.53;6.83;;;;;;;15.75;96.64;99826.81;5048311;28;20224;-54
2022/05/12 00:31:45;;;;;;;8.30;7.60;;;;;;;15.70;97.85;99823.56;5048424;28;20219;-54
2022/05/12 00:34:15;;;;;;;7.77;7.07;;;;;;;15.65;98.93;99823.78;5048224;28;20197;-55
2022/05/12 00:36:42;;;;;;;7.30;6.80;;;;;;;15.60;100.00;99828.34;5048324;28;20196;-53
2022/05/12 00:39:10;;;;;;;9.47;7.80;;;;;;;15.52;100.00;99833.91;5048326;28;20197;-53
2022/05/12 00:41:38;;;;;;;8.00;7.30;;;;;;;15.36;100.00;99829.38;5048252;28;20197;-53
2022/05/12 00:44:08;;;;;;;12.60;8.07;;;;;;;15.37;100.00;99833.69;5029213;28;20194;-53
2022/05/12 00:46:38;;;;;;;10.63;8.33;;;;;;;15.36;100.00;99837.22;5020435;28;20202;-53
2022/05/12 00:49:08;;;;;;;9.70;8.73;;;;;;;15.42;100.00;99831.75;5008637;28;20226;-53
2022/05/12 00:51:39;;;;;;;9.87;8.93;;;;;;;15.36;100.00;99835.47;5008527;28;20199;-52
2022/05/12 00:54:13;;;;;;;9.57;7.97;;;;;;;15.36;100.00;99827.63;5008621;28;20208;-53
2022/05/12 00:56:40;;;;;;;11.50;8.23;;;;;;;15.31;100.00;99826.13;5008488;28;20194;-56
2022/05/12 00:59:12;;;;;;;12.63;8.03;;;;;;;15.29;100.00;99830.56;5008398;28;20201;-56
2022/05/12 01:01:40;;;;;;;14.73;8.00;;;;;;;15.22;100.00;99830.00;5008763;28;20580;-55
2022/05/12 01:04:07;;;;;;;9.03;7.83;;;;;;;15.25;100.00;99837.69;5008156;28;20198;-56
2022/05/12 01:06:34;;;;;;;15.40;7.70;;;;;;;15.16;100.00;99812.78;5008428;28;20208;-54
2022/05/12 01:09:02;;;;;;;8.77;7.87;;;;;;;15.23;100.00;99843.00;5008164;28;20727;-55
2022/05/12 01:11:31;;;;;;;8.23;7.50;;;;;;;15.19;100.00;99841.44;5008103;28;20190;-54
2022/05/12 01:14:01;;;;;;;10.00;7.60;;;;;;;15.21;100.00;99849.22;5007951;28;20595;-55
2022/05/12 01:16:46;;;;;;;7.77;6.90;;;;;;;15.13;100.00;99846.91;5008406;28;20691;-53
2022/05/12 01:19:16;;;;;;;8.30;6.53;;;;;;;15.09;100.00;99853.19;5008105;28;20206;-55
2022/05/12 01:21:43;;;;;;;7.23;6.53;;;;;;;15.15;100.00;99847.69;5008186;28;20209;-54
2022/05/12 01:24:13;;;;;;;8.00;7.33;;;;;;;15.13;99.46;99844.28;5007579;28;20289;-53
2022/05/12 01:26:41;;;;;;;7.80;7.10;;;;;;;15.21;99.04;99850.06;5007900;28;20257;-54
2022/05/12 01:29:08;;;;;;;10.37;7.10;;;;;;;15.21;97.86;99850.06;5007875;28;20232;-54
2022/05/12 01:31:36;;;;;;;9.10;6.60;;;;;;;15.23;95.76;99848.25;5008054;28;20212;-54
2022/05/12 01:34:05;;;;;;;9.57;7.67;;;;;;;15.31;94.08;99855.75;5007890;28;20200;-54
2022/05/12 01:36:33;;;;;;;9.23;8.30;;;;;;;15.20;93.26;99858.81;5007618;28;20204;-53
2022/05/12 01:39:00;;;;;;;9.83;8.70;;;;;;;15.18;93.08;99855.41;5007475;28;20206;-53
2022/05/12 01:41:28;;;;;;;8.90;7.87;;;;;;;15.18;93.43;99868.50;5007987;28;20589;-53
2022/05/12 01:43:55;;;;;;;10.10;8.83;;;;;;;15.16;93.52;99856.41;5007621;28;20199;-54
2022/05/12 01:46:22;;;;;;;9.93;9.03;;;;;;;15.01;93.20;99836.16;5007588;28;20204;-54
2022/05/12 01:48:49;;;;;;;11.97;10.60;;;;;;;15.06;93.30;99863.78;5007529;28;20220;-53
2022/05/12 01:51:16;;;;;;;13.13;10.43;;;;;;;15.00;93.80;99858.81;5007540;28;20564;-52
2022/05/12 01:53:43;;;;;;;12.43;10.50;;;;;;;15.05;94.13;99858.59;5007529;28;20194;-53
2022/05/12 01:56:10;;;;;;;11.00;10.03;;;;;;;15.01;92.14;99852.66;5007462;28;20285;-53
2022/05/12 01:58:39;;;;;;;11.00;9.70;;;;;;;15.07;92.03;99862.88;5007493;28;20194;-53
2022/05/12 02:01:07;;;;;;;11.30;9.80;;;;;;;15.09;90.63;99868.03;5007415;28;20194;-54
2022/05/12 02:03:35;;;;;;;10.47;9.30;;;;;;;15.15;90.37;99875.59;5007541;28;20198;-54
2022/05/12 02:06:02;;;;;;;10.10;9.27;;;;;;;15.23;89.44;99869.16;5007168;28;20202;-54
2022/05/12 02:08:29;;;;;;;9.27;8.30;;;;;;;15.15;89.88;99870.38;5007484;28;20719;-53
2022/05/12 02:10:56;;;;;;;9.73;8.70;;;;;;;15.10;90.11;99870.59;5007029;28;20198;-53
2022/05/12 02:13:25;;;;;;;9.73;8.30;;;;;;;15.02;90.83;99872.66;5007506;28;20669;-52
2022/05/12 02:15:56;;;;;;;9.27;7.73;;;;;;;15.09;90.25;99879.34;5007293;28;20257;-55
2022/05/12 02:18:24;;;;;;;11.37;8.03;;;;;;;14.96;90.65;99870.31;5007127;28;20190;-55
2022/05/12 02:20:51;;;;;;;8.80;8.00;;;;;;;14.78;90.96;99855.38;5007381;28;20198;-55
2022/05/12 02:23:19;;;;;;;8.40;7.60;;;;;;;14.89;91.91;99884.53;5007167;28;20285;-55
2022/05/12 02:25:46;;;;;;;8.40;7.60;;;;;;;15.02;90.37;99885.72;5006867;28;20320;-55
2022/05/12 02:28:13;;;;;;;8.57;7.87;;;;;;;14.99;90.96;99879.78;5007291;28;20572;-55
2022/05/12 02:30:41;;;;;;;8.33;7.30;;;;;;;15.02;90.55;99890.09;5007192;28;20570;-55
2022/05/12 02:33:09;;;;;;;8.03;6.40;;;;;;;15.04;90.81;99893.50;5007075;28;20206;-53
2022/05/12 02:35:38;;;;;;;8.33;7.00;;;;;;;15.10;89.85;99895.88;5007228;28;20229;-53
2022/05/12 02:38:06;;;;;;;6.93;6.43;;;;;;;15.11;90.07;99897.59;5007022;28;20199;-53
2022/05/12 02:40:33;;;;;;;6.80;6.30;;;;;;;15.07;90.36;99894.25;5007107;28;20269;-54
2022/05/12 02:43:00;;;;;;;8.50;7.33;;;;;;;15.02;90.43;99897.94;5006909;28;20198;-53
2022/05/12 02:45:28;;;;;;;8.47;7.43;;;;;;;15.04;90.28;99904.81;5007276;28;20617;-53
2022/05/12 02:47:56;;;;;;;10.00;7.43;;;;;;;15.04;90.73;99910.03;5006776;28;20297;-53
2022/05/12 02:50:24;;;;;;;8.33;6.70;;;;;;;15.11;90.16;99911.50;5007819;28;20228;-53
2022/05/12 02:52:51;;;;;;;12.87;7.17;;;;;;;15.12;90.44;99907.94;5010134;28;20207;-53
2022/05/12 02:55:18;;;;;;;11.93;8.03;;;;;;;15.25;89.45;99905.69;5010276;28;20329;-56
2022/05/12 02:57:45;;;;;;;8.00;6.90;;;;;;;15.32;89.20;99904.53;5010381;28;20203;-55
2022/05/12 03:00:17;;;;;;;12.30;6.80;;;;;;;15.29;89.98;99911.66;5010168;28;20202;-56
2022/05/12 03:02:45;;;;;;;7.20;6.50;;;;;;;15.23;90.04;99913.63;5010321;28;20671;-55
2022/05/12 03:05:12;;;;;;;8.37;6.53;;;;;;;15.26;89.96;99913.47;5010855;28;20228;-54
2022/05/12 03:07:41;;;;;;;9.00;7.27;;;;;;;15.28;90.72;99918.66;5009431;28;20222;-55
2022/05/12 03:10:09;;;;;;;9.13;7.30;;;;;;;15.15;91.84;99917.44;5018686;28;20225;-55
2022/05/12 03:12:36;;;;;;;8.43;7.13;;;;;;;14.97;94.27;99924.28;5015580;28;20221;-55
2022/05/12 03:15:04;;;;;;;8.40;7.43;;;;;;;14.89;95.78;99921.13;5009287;28;20620;-59
2022/05/12 03:17:31;;;;;;;8.40;7.60;;;;;;;14.85;96.77;99920.41;5012308;28;20647;-60
2022/05/12 03:19:58;;;;;;;7.73;7.10;;;;;;;14.67;97.49;99896.75;5010418;28;20226;-56
2022/05/12 03:22:25;;;;;;;8.63;7.77;;;;;;;14.82;98.06;99922.28;5019243;28;20221;-56
2022/05/12 03:24:54;;;;;;;10.27;7.90;;;;;;;14.82;98.28;99919.66;5029027;28;20216;-56
2022/05/12 03:27:21;;;;;;;12.63;8.37;;;;;;;14.82;98.99;99924.88;5029439;28;20220;-54
2022/05/12 03:29:48;;;;;;;13.17;7.67;;;;;;;14.81;99.06;99928.41;5019743;28;20225;-52
2022/05/12 03:32:15;;;;;;;8.70;7.87;;;;;;;14.87;99.03;99929.03;5014050;28;20708;-55
2022/05/12 03:34:42;;;;;;;8.87;7.73;;;;;;;14.95;98.73;99931.31;5018893;28;20595;-55
2022/05/12 03:37:10;;;;;;;13.43;8.20;;;;;;;14.98;97.91;99928.59;5018584;28;20215;-55
2022/05/12 03:39:39;;;;;;;9.07;8.13;;;;;;;14.93;98.99;99925.31;5009479;28;20202;-55
2022/05/12 03:42:08;;;;;;;13.27;7.97;;;;;;;14.93;98.84;99921.84;5029030;28;20194;-55
2022/05/12 03:44:54;;;;;;;8.77;7.97;;;;;;;14.93;98.82;99922.69;5029058;28;20205;-55
2022/05/12 03:47:24;;;;;;;14.70;8.80;;;;;;;15.07;98.57;99928.22;5029101;28;20254;-55
2022/05/12 03:49:53;;;;;;;8.90;7.70;;;;;;;15.76;94.51;99930.59;5028724;28;20278;-55
2022/05/12 03:52:21;;;;;;;8.60;7.90;;;;;;;16.77;86.49;99932.13;5029411;28;20193;-56
2022/05/12 03:54:49;;;;;;;11.70;7.43;;;;;;;17.86;79.27;99937.16;5019734;28;20576;-55
2022/05/12 03:57:18;;;;;;;7.90;7.17;;;;;;;18.81;72.11;99946.09;5016892;28;20197;-54
2022/05/12 03:59:48;;;;;;;9.33;7.40;;;;;;;19.52;66.97;99949.91;5017763;28;20193;-54
2022/05/12 04:02:15;;;;;;;13.65;7.13;;;;;;;20.40;62.62;99950.75;5018040;28;20688;-53
2022/05/12 04:04:43;;;;;;;12.30;6.63;;;;;;;21.29;58.04;99958.19;5017927;28;20204;-54
2022/05/12 04:07:12;;;;;;;8.45;6.80;;;;;;;22.38;53.94;99957.78;5019192;28;20671;-54
2022/05/12 04:09:39;;;;;;;12.30;6.07;;;;;;;23.27;50.55;99960.16;5022645;28;20221;-52
2022/05/12 04:12:09;;;;;;;11.80;6.80;;;;;;;24.32;47.44;99970.72;5027851;28;20288;-53
2022/05/12 04:14:37;;;;;;;10.35;7.63;;;;;;;25.06;45.38;99968.34;5027946;28;20588;-52
2022/05/12 04:17:04;;;;;;;14.05;6.80;;;;;;;25.96;42.72;99970.47;5015826;28;20194;-52
2022/05/12 04:19:32;;;;;;;8.80;6.30;;;;;;;26.94;40.43;99976.16;5007836;28;20198;-51
2022/05/12 04:21:58;;;;;;;9.15;6.15;;;;;;;27.71;38.56;99983.34;5007815;28;20240;-53
2022/05/12 04:24:25;;;;;;;11.65;6.60;;;;;;;28.01;37.27;99984.97;5008075;28;20598;-52
2022/05/12 04:26:52;;;;;;;7.25;6.10;;;;;;;28.55;36.28;99984.28;5007676;28;20241;-53
2022/05/12 04:29:19;;;;;;;7.78;5.65;;;;;;;29.52;34.51;99987.22;5007759;28;20249;-53
2022/05/12 04:31:47;;;;;;;7.95;5.70;;;;;;;30.01;33.19;99984.97;5007814;28;20289;-52
2022/05/12 04:36:58;;;;;;;6.75;5.90;;;;;;;30.47;31.88;99994.44;5022790;28;20285;-60
2022/05/12 04:39:26;;;;;;;8.35;5.53;;;;;;;31.29;30.57;99997.25;5027443;28;20198;-59
2022/05/12 04:41:53;;;;;;;6.85;5.07;;;;;;;31.70;29.86;99984.75;5013146;28;20244;-59
2022/05/12 04:44:20;;;;;;;8.70;5.70;;;;;;;32.75;28.50;99989.06;5007082;28;20267;-61
2022/05/12 04:46:48;;;;;;;11.43;6.07;;;;;;;33.16;27.81;99992.38;5006015;28;20257;-58
2022/05/12 04:49:15;;;;;;;7.50;6.15;;;;;;;33.59;27.09;99998.16;5029376;28;20239;-58
2022/05/12 04:51:43;;;;;;;17.63;6.13;;;;;;;33.81;26.88;99988.41;5047360;28;20650;-58
2022/05/12 04:54:10;;;;;;;8.18;6.05;;;;;;;33.51;26.98;99992.84;5047111;28;20227;-53
2022/05/12 04:56:37;;;;;;;8.48;6.10;;;;;;;33.60;27.15;99985.53;5045973;28;20228;-52
2022/05/12 04:59:06;;;;;;;11.10;5.97;;;;;;;34.02;27.01;99985.84;5046847;28;20224;-52
2022/05/12 05:01:33;;;;;;;10.27;5.40;;;;;;;34.82;25.75;99996.75;5046808;28;20220;-53
2022/05/12 05:04:03;;;;;;;11.00;5.47;;;;;;;34.62;25.24;100000.19;5047101;28;20228;-54
2022/05/12 05:06:30;;;;;;;9.32;5.38;;;;;;;34.87;25.20;100002.44;5047422;28;20228;-53
2022/05/12 05:08:58;;;;;;;10.00;5.00;;;;;;;35.62;24.53;99999.31;5047552;28;20673;-53
2022/05/12 05:11:25;;;;;;;7.38;5.07;;;;;;;36.25;23.82;99992.13;5047720;28;20235;-53
2022/05/12 05:13:53;;;;;;;10.85;5.75;;;;;;;36.03;24.19;99983.22;5046390;28;20221;-53
2022/05/12 05:16:20;;;;;;;9.13;5.70;;;;;;;36.31;23.80;100004.88;5041571;28;20221;-56
2022/05/12 05:18:47;;;;;;;10.77;5.45;;;;;;;35.52;24.57;99998.81;5027885;28;20205;-58
2022/05/12 05:21:16;;;;;;;8.57;5.68;;;;;;;34.99;24.88;100002.75;5027675;28;20189;-57
2022/05/12 05:23:42;;;;;;;6.07;5.47;;;;;;;35.01;25.02;99995.31;5027356;28;20189;-58
2022/05/12 05:26:09;;;;;;;11.43;5.45;;;;;;;34.63;25.21;99985.69;5027464;28;20241;-58
2022/05/12 05:28:37;;;;;;;5.78;5.22;;;;;;;34.51;25.55;99983.47;5027600;28;20193;-58
2022/05/12 05:31:05;;;;;;;11.85;5.85;;;;;;;34.56;25.10;100008.00;5027483;28;20201;-58
2022/05/12 05:33:32;;;;;;;9.25;5.75;;;;;;;34.74;24.79;100006.78;5027507;28;20206;-58
2022/05/12 05:35:59;;;;;;;6.43;5.38;;;;;;;34.75;25.39;99994.97;5027307;28;20219;-54
2022/05/12 05:38:28;;;;;;;8.77;5.72;;;;;;;34.22;25.92;100003.13;5027214;28;20292;-58
2022/05/12 05:40:55;;;;;;;9.85;6.00;;;;;;;33.89;26.73;99986.47;5027347;28;20224;-59
2022/05/12 05:43:23;;;;;;;5.32;4.78;;;;;;;34.21;25.55;100006.00;5027646;28;20300;-58
2022/05/12 05:45:50;;;;;;;6.72;5.07;;;;;;;33.68;26.49;100007.84;5027408;28;20208;-58
2022/05/12 05:48:18;;;;;;;11.43;5.50;;;;;;;33.42;27.09;100001.97;5026647;28;20731;-58
2022/05/12 05:53:35;;;;;;;7.03;5.32;;;;;;;32.89;27.62;100008.16;5007599;28;20223;-58
2022/05/12 05:56:04;;;;;;;11.15;5.60;;;;;;;32.76;27.90;99992.59;5007491;28;20595;-58
2022/05/12 05:58:31;;;;;;;10.68;6.00;;;;;;;33.28;26.95;99998.22;5008328;28;20609;-58
2022/05/12 06:00:58;;;;;;;9.43;5.45;;;;;;;32.91;27.25;100006.13;5007327;28;20255;-58
2022/05/12 06:03:25;;;;;;;5.93;5.40;;;;;;;32.25;28.36;100005.53;5010954;28;20201;-58
2022/05/12 06:05:52;;;;;;;6.88;5.22;;;;;;;32.62;28.40;99996.81;5026033;28;20208;-58
2022/05/12 06:08:20;;;;;;;18.63;6.20;;;;;;;32.89;27.99;99986.66;5026241;28;20212;-58
2022/05/12 06:10:49;;;;;;;10.00;6.30;;;;;;;32.84;28.10;100003.34;5026125;28;20242;-58
2022/05/12 06:13:16;;;;;;;7.75;6.38;;;;;;;32.96;27.45;99998.41;5011047;28;20293;-58
2022/05/12 06:15:43;;;;;;;10.35;6.20;;;;;;;32.97;27.50;99995.50;5007381;28;20596;-57
2022/05/12 06:18:13;;;;;;;9.52;5.88;;;;;;;32.24;28.46;100000.31;5005976;28;20288;-58
2022/05/12 06:20:41;;;;;;;6.65;5.38;;;;;;;32.70;28.43;99995.97;5006312;28;20230;-58
2022/05/12 06:23:09;;;;;;;8.45;6.05;;;;;;;33.58;27.17;99988.41;5006991;28;20209;-59
2022/05/12 06:25:37;;;;;;;8.55;5.90;;;;;;;34.65;26.21;100005.22;5007509;28;20748;-58
2022/05/12 06:28:06;;;;;;;6.32;5.43;;;;;;;34.43;26.25;99999.72;5009831;28;20584;-58
2022/05/12 06:30:33;;;;;;;8.43;5.65;;;;;;;34.48;26.24;99997.31;5011824;28;20190;-58
2022/05/12 06:33:01;;;;;;;5.70;5.30;;;;;;;34.57;25.65;100006.97;5024510;28;20598;-58
2022/05/12 06:35:28;;;;;;;5.88;5.15;;;;;;;34.25;26.39;100007.31;5019791;28;20202;-58
2022/05/12 06:37:55;;;;;;;11.00;5.70;;;;;;;34.31;26.72;99995.00;5019688;28;20201;-57
2022/05/12 06:40:23;;;;;;;9.55;5.70;;;;;;;33.25;27.49;100003.13;5018295;28;20221;-58
2022/05/12 06:42:50;;;;;;;6.18;5.22;;;;;;;32.51;28.87;100005.25;5029307;28;20201;-58
2022/05/12 06:45:21;;;;;;;13.68;5.82;;;;;;;32.56;29.12;99994.84;5011581;28;20205;-58
2022/05/12 06:47:50;;;;;;;9.98;6.07;;;;;;;32.91;28.99;99996.22;5009425;28;20243;-58
2022/05/12 06:50:20;;;;;;;10.50;5.70;;;;;;;32.28;29.18;99999.78;5009408;28;20201;-58
2022/05/12 06:52:48;;;;;;;8.15;5.80;;;;;;;31.73;29.63;99997.81;5009392;28;20198;-58
2022/05/12 06:55:15;;;;;;;9.85;6.43;;;;;;;31.62;30.13;99995.44;5009310;28;20205;-58
2022/05/12 06:57:42;;;;;;;11.52;7.70;;;;;;;31.59;30.34;99995.81;5033382;28;20216;-57
2022/05/12 07:00:13;;;;;;;5.95;5.38;;;;;;;31.20;30.52;99990.22;5026045;28;20718;-57
2022/05/12 07:02:42;;;;;;;5.28;4.85;;;;;;;31.25;30.58;99984.38;5021802;28;20213;-52
2022/05/12 07:05:09;;;;;;;8.50;5.85;;;;;;;31.56;30.16;99990.75;5021084;28;20224;-53
2022/05/12 07:07:37;;;;;;;8.40;6.25;;;;;;;31.57;30.31;99962.91;5049003;28;20224;-52
2022/05/12 07:10:05;;;;;;;10.43;6.63;;;;;;;32.04;29.68;99983.72;5030874;28;20229;-53
2022/05/12 07:12:32;;;;;;;7.80;5.28;;;;;;;31.97;29.25;99988.06;5029419;28;20221;-53
2022/05/12 07:14:59;;;;;;;5.57;5.00;;;;;;;31.70;29.27;99976.72;5029109;28;20737;-53
2022/05/12 07:17:26;;;;;;;5.95;4.72;;;;;;;31.55;29.51;99981.03;5028880;28;20274;-54
2022/05/12 07:26:35;;;;;;;7.25;4.45;;;;;;;31.46;29.66;99979.34;5028828;28;20236;-53
2022/05/12 07:28:15;;;;;;;5.25;4.25;;;;;;;33.00;27.81;99979.03;5048867;28;20807;-58
2022/05/12 07:33:26;;;;;;;6.25;5.65;;;;;;;34.20;26.66;99967.44;5048877;28;20265;-57
2022/05/12 07:35:55;;;;;;;8.20;5.40;;;;;;;34.27;26.61;99961.38;5047943;27;20224;-58
2022/05/12 07:38:22;;;;;;;8.32;4.90;;;;;;;34.00;26.81;99960.94;5048960;28;20221;-58
2022/05/12 07:40:48;;;;;;;6.07;5.22;;;;;;;34.86;25.72;99983.75;5048454;28;20235;-58
2022/05/12 07:43:16;;;;;;;7.85;4.78;;;;;;;34.80;25.95;99979.94;5046508;28;20228;-58
2022/05/12 07:45:43;;;;;;;9.02;4.68;;;;;;;34.78;25.65;99964.94;5019980;28;20294;-53
2022/05/12 07:48:11;;;;;;;7.38;4.47;;;;;;;35.24;25.43;99976.25;5024047;28;20217;-52
2022/05/12 07:50:39;;;;;;;7.90;4.30;;;;;;;35.94;25.20;99973.63;5028242;28;20204;-52
2022/05/12 07:53:07;;;;;;;5.60;4.65;;;;;;;36.20;24.68;99972.97;5028788;28;20193;-53
2022/05/12 07:55:35;;;;;;;4.45;3.97;;;;;;;35.20;25.21;99970.44;5028305;28;20290;-53
2022/05/12 07:58:03;;;;;;;6.80;4.47;;;;;;;35.43;25.21;99970.25;5027580;28;20203;-57
2022/05/12 08:00:30;;;;;;;15.90;9.63;;;;;;;36.12;24.54;99970.38;5028422;28;20221;-57
2022/05/12 08:02:57;;;;;;;6.85;6.25;;;;;;;35.70;24.56;99971.31;5028780;28;20197;-57
2022/05/12 08:05:24;;;;;;;15.18;11.98;;;;;;;35.90;24.70;99968.78;5028919;28;20193;-53
2022/05/12 08:07:52;;;;;;;5.65;4.90;;;;;;;36.42;23.49;99952.09;5028850;28;20203;-53
2022/05/12 08:10:20;;;;;;;6.88;4.60;;;;;;;36.73;23.37;99966.00;5028577;28;20208;-53
2022/05/12 08:12:48;;;;;;;9.40;5.40;;;;;;;37.21;23.04;99965.13;5028736;28;20229;-52
2022/05/12 08:15:15;;;;;;;7.60;4.38;;;;;;;36.67;22.90;99955.13;5028568;28;20208;-53
2022/05/12 08:17:42;;;;;;;4.15;3.95;;;;;;;36.52;23.05;99954.44;5028560;28;20197;-53
2022/05/12 08:20:12;;;;;;;5.35;4.88;;;;;;;36.62;22.90;99961.13;5028506;28;20221;-52
2022/05/12 08:22:39;;;;;;;4.85;4.35;;;;;;;36.17;23.08;99967.09;5028591;28;20197;-53
2022/05/12 08:25:08;;;;;;;4.30;4.00;;;;;;;35.41;23.95;99956.13;5028573;28;20281;-52
2022/05/12 08:27:37;;;;;;;3.70;3.40;;;;;;;34.54;23.88;99958.81;5028478;28;20231;-58
2022/05/12 08:30:08;;;;;;;5.25;4.85;;;;;;;33.78;25.29;99959.97;5028465;28;20203;-57
2022/05/12 08:32:35;;;;;;;5.75;5.25;;;;;;;33.19;25.93;99951.66;5028447;28;20667;-57
2022/05/12 08:35:02;;;;;;;4.25;3.90;;;;;;;33.15;26.13;99941.44;5028318;28;20197;-57
2022/05/12 08:37:29;;;;;;;4.45;4.10;;;;;;;33.16;26.14;99949.34;5028433;28;20254;-57
2022/05/12 08:39:56;;;;;;;5.30;4.85;;;;;;;33.50;26.11;99950.78;5028476;28;20685;-57
2022/05/12 08:42:29;;;;;;;7.10;5.55;;;;;;;33.60;25.97;99953.22;5028272;28;20292;-58
2022/05/12 08:45:00;;;;;;;7.07;4.75;;;;;;;33.44;26.54;99946.13;5028483;28;20689;-56
2022/05/12 08:47:31;;;;;;;4.95;4.13;;;;;;;32.92;26.40;99938.75;5027102;28;20198;-57
2022/05/12 08:49:59;;;;;;;4.55;3.58;;;;;;;32.39;27.16;99945.69;5008765;28;20297;-56
2022/05/12 08:52:31;;;;;;;5.13;4.10;;;;;;;32.42;26.83;99947.19;5008665;28;20289;-57
2022/05/12 08:55:15;;;;;;;5.32;3.75;;;;;;;32.21;27.47;99944.25;5008437;28;20198;-57
2022/05/12 08:57:47;;;;;;;5.88;3.40;;;;;;;31.84;27.39;99915.25;5008529;28;20243;-58
2022/05/12 09:00:18;;;;;;;4.20;3.80;;;;;;;31.85;28.03;99941.94;5007944;28;20194;-51
2022/05/12 09:02:52;;;;;;;5.13;4.05;;;;;;;31.88;28.25;99932.72;5017401;28;20678;-52
2022/05/12 09:05:22;;;;;;;4.10;3.80;;;;;;;31.37;28.19;99924.84;5028093;28;20284;-57
2022/05/12 09:07:56;;;;;;;5.03;3.22;;;;;;;31.62;28.63;99935.56;5028023;28;20239;-52
2022/05/12 09:10:37;;;;;;;6.82;4.00;;;;;;;31.69;27.70;99932.06;5028290;28;20281;-57
2022/05/12 09:13:13;;;;;;;6.85;4.68;;;;;;;31.82;27.53;99914.63;5027841;28;20201;-58
2022/05/12 09:15:46;;;;;;;5.30;4.80;;;;;;;32.20;27.38;99927.28;5027946;28;20299;-57
2022/05/12 09:18:17;;;;;;;5.45;5.03;;;;;;;32.46;26.43;99930.53;5027636;28;20211;-57
2022/05/12 09:20:44;;;;;;;8.60;4.90;;;;;;;32.28;26.91;99929.94;5027780;28;20247;-57
2022/05/12 09:23:12;;;;;;;7.47;4.82;;;;;;;32.59;26.14;99927.31;5027490;28;20208;-53
2022/05/12 09:25:41;;;;;;;4.75;4.38;;;;;;;32.51;25.78;99908.50;5034360;28;20217;-52
2022/05/12 09:28:19;;;;;;;5.30;3.15;;;;;;;32.58;26.12;99930.16;5039084;28;20199;-54
2022/05/12 09:30:50;;;;;;;3.88;3.47;;;;;;;32.71;25.59;99925.09;5012735;28;20205;-52
2022/05/12 09:33:31;;;;;;;6.32;4.07;;;;;;;32.25;25.51;99919.56;5025719;28;20200;-53
2022/05/12 09:35:59;;;;;;;4.40;4.05;;;;;;;32.52;25.71;99914.72;5025830;28;20697;-52
2022/05/12 09:38:28;;;;;;;3.63;3.42;;;;;;;32.85;25.67;99926.16;5026472;28;20687;-53
2022/05/12 09:40:56;;;;;;;4.32;3.90;;;;;;;33.24;25.13;99926.09;5026080;28;20225;-53
2022/05/12 09:43:29;;;;;;;5.75;4.25;;;;;;;33.91;24.80;99928.88;5026491;28;20204;-52
2022/05/12 09:46:04;;;;;;;4.97;3.58;;;;;;;33.91;23.87;99923.50;5027321;28;20201;-53
2022/05/12 09:48:33;;;;;;;3.83;3.53;;;;;;;33.72;23.21;99922.16;5027353;28;20268;-53
2022/05/12 09:51:22;;;;;;;8.60;3.90;;;;;;;33.71;23.85;99924.00;5027458;28;20204;-52
2022/05/12 09:53:50;;;;;;;3.70;2.80;;;;;;;33.43;23.43;99917.53;5027275;28;20205;-57
2022/05/12 09:56:31;;;;;;;3.65;3.35;;;;;;;33.47;23.79;99914.31;5027324;28;20194;-58
2022/05/12 09:59:07;;;;;;;6.40;4.75;;;;;;;33.63;23.74;99909.78;5026753;28;20193;-58
2022/05/12 10:01:48;;;;;;;6.85;3.67;;;;;;;33.66;24.09;99918.31;5027050;28;20269;-51
2022/05/12 10:09:59;;;;;;;5.85;3.50;;;;;;;32.53;24.20;99898.41;5046947;28;20226;-53
2022/05/12 10:12:32;;;;;;;3.45;2.95;;;;;;;32.77;24.66;99889.41;5006750;28;20265;-53
2022/05/12 10:15:03;;;;;;;7.00;3.83;;;;;;;32.58;24.69;99900.59;5006665;28;20222;-53
2022/05/12 10:17:36;;;;;;;3.92;3.25;;;;;;;32.35;24.71;99896.00;5006652;28;20222;-52
2022/05/12 10:20:08;;;;;;;7.63;4.35;;;;;;;32.29;24.84;99890.47;5007089;28;20281;-53
2022/05/12 10:22:42;;;;;;;5.60;2.80;;;;;;;31.68;25.00;99886.63;5007359;28;20261;-52
2022/05/12 10:25:21;;;;;;;4.03;2.97;;;;;;;31.46;24.70;99889.97;5021165;28;20224;-53
2022/05/12 10:27:54;;;;;;;6.38;3.28;;;;;;;31.23;25.21;99885.28;5026718;28;20584;-53
2022/05/12 10:30:39;;;;;;;5.57;4.03;;;;;;;31.27;25.91;99885.75;5026563;28;20204;-53
2022/05/12 10:33:30;;;;;;;5.25;3.60;;;;;;;31.13;26.15;99873.88;5026776;28;20201;-58
2022/05/12 10:36:09;;;;;;;4.70;4.00;;;;;;;31.04;26.96;99870.31;5026799;28;20585;-58
2022/05/12 10:38:43;;;;;;;4.65;3.63;;;;;;;30.96;26.44;99862.28;5026777;28;20257;-58
2022/05/12 10:41:18;;;;;;;4.63;4.32;;;;;;;30.48;25.71;99862.97;5026700;28;20603;-58
2022/05/12 10:44:05;;;;;;;4.78;3.65;;;;;;;30.29;26.69;99858.75;5026277;28;20455;-53
2022/05/12 10:46:44;;;;;;;4.38;3.90;;;;;;;30.04;27.85;99854.28;5026748;28;20202;-53
2022/05/12 10:49:22;;;;;;;6.85;3.88;;;;;;;29.78;27.53;99857.00;5006873;28;20668;-58
2022/05/12 10:52:04;;;;;;;5.97;3.58;;;;;;;29.44;28.20;99856.94;5021446;28;20201;-56
2022/05/12 10:54:39;;;;;;;5.18;3.72;;;;;;;29.27;27.72;99849.75;5015735;28;20220;-57
2022/05/12 10:57:23;;;;;;;3.70;3.28;;;;;;;28.89;28.27;99845.59;5023594;28;20597;-57
2022/05/12 11:00:22;;;;;;;3.72;3.42;;;;;;;28.77;28.44;99842.28;5021122;28;20689;-58
2022/05/12 11:02:53;;;;;;;4.07;3.33;;;;;;;28.70;27.81;99841.19;5017546;28;20221;-57
2022/05/12 11:05:31;;;;;;;3.80;3.50;;;;;;;28.75;28.31;99844.25;5015031;28;20302;-58
2022/05/12 11:08:06;;;;;;;3.47;3.17;;;;;;;28.58;28.47;99834.41;5014856;28;20220;-57
2022/05/12 11:10:41;;;;;;;4.65;3.33;;;;;;;28.51;28.42;99833.34;5015182;28;20196;-57
2022/05/12 11:13:13;;;;;;;3.25;3.05;;;;;;;28.47;27.63;99819.44;5019640;28;20206;-57
2022/05/12 11:15:52;;;;;;;6.57;3.22;;;;;;;28.72;27.73;99827.69;5020423;28;20186;-57
2022/05/12 11:18:25;;;;;;;3.60;2.95;;;;;;;28.77;27.40;99826.25;5017576;28;20198;-58
2022/05/12 11:21:02;;;;;;;4.15;3.30;;;;;;;28.88;27.29;99830.56;5009646;28;20285;-57
2022/05/12 11:23:48;;;;;;;5.13;3.10;;;;;;;28.76;27.08;99824.56;5012913;28;20629;-57
2022/05/12 11:26:36;;;;;;;3.35;3.15;;;;;;;28.48;27.12;99818.44;5017367;28;20221;-57
2022/05/12 11:32:05;;;;;;;6.72;3.30;;;;;;;28.32;26.62;99820.13;5014813;28;20279;-53
2022/05/12 11:34:35;;;;;;;2.75;2.65;;;;;;;28.31;26.87;99810.41;5012237;28;20193;-53
2022/05/12 11:37:28;;;;;;;3.42;3.00;;;;;;;28.50;27.25;99807.63;5020875;28;20600;-53
2022/05/12 11:39:57;;;;;;;3.78;3.03;;;;;;;28.59;25.96;99805.84;5018057;28;20190;-53
2022/05/12 11:42:26;;;;;;;3.38;3.08;;;;;;;28.70;26.05;99803.78;5018583;28;20247;-53
2022/05/12 11:45:01;;;;;;;6.50;2.55;;;;;;;28.93;25.71;99800.69;5018023;28;20198;-58
2022/05/12 11:47:53;;;;;;;6.45;2.90;;;;;;;29.12;25.76;99795.19;5017880;28;20809;-54
2022/05/12 11:50:44;;;;;;;4.47;3.20;;;;;;;29.05;25.55;99797.63;5018375;28;20194;-52
2022/05/12 11:53:19;;;;;;;2.72;2.50;;;;;;;29.05;24.70;99788.75;5014758;28;20730;-58
2022/05/12 11:56:06;;;;;;;4.88;3.05;;;;;;;28.86;25.94;99779.94;5009242;28;20223;-57
2022/05/12 11:58:40;;;;;;;4.95;3.00;;;;;;;28.87;26.17;99781.63;5009604;28;20194;-57
2022/05/12 12:01:10;;;;;;;5.50;3.00;;;;;;;28.86;26.59;99766.59;5010800;28;20644;-58
2022/05/12 12:03:51;;;;;;;2.80;2.60;;;;;;;29.03;23.71;99782.72;5025348;28;20196;-57
2022/05/12 12:06:51;;;;;;;2.60;2.40;;;;;;;29.11;24.21;99772.13;5017602;28;20680;-58